Time;durP1;ratioP1;P1;durP2;ratioP2;P2;SDS_P1;SDS_P2;PMS_P1;PMS_P2;Temp;Humidity;BMP_temperature;BMP_pressure;BME280_temperature;BME280_humidity;BME280_pressure;Samples;Min_cycle;Max_cycle;Signal;HPM_P1;HPM_P2
2021/06/08 00:00:37;;;;;;;7.50;5.00;;;;;;;13.16;100.00;99818.08;1702687;84;21661;-79
2021/06/08 00:03:04;;;;;;;5.93;4.77;;;;;;;13.10;100.00;99820.22;1730756;81;21503;-66
2021/06/08 00:05:31;;;;;;;5.97;4.23;;;;;;;13.10;100.00;99814.48;1701519;83;21018;-67
2021/06/08 00:07:58;;;;;;;6.90;5.33;;;;;;;13.08;100.00;99819.14;1671974;84;21097;-79
2021/06/08 00:10:25;;;;;;;7.83;4.77;;;;;;;13.05;100.00;99816.94;1702050;83;21575;-79
2021/06/08 00:12:51;;;;;;;7.87;4.40;;;;;;;13.09;100.00;99819.94;1703248;82;21156;-80
2021/06/08 00:15:17;;;;;;;6.80;4.30;;;;;;;13.02;100.00;99817.34;1701415;83;21073;-77
2021/06/08 00:17:44;;;;;;;6.30;4.47;;;;;;;13.00;100.00;99818.08;1703054;82;21343;-78
2021/06/08 00:20:13;;;;;;;7.43;4.77;;;;;;;12.96;100.00;99814.78;1701616;83;21039;-78
2021/06/08 00:22:39;;;;;;;6.53;4.60;;;;;;;12.96;100.00;99809.55;1702177;83;21276;-78
2021/06/08 00:25:07;;;;;;;7.60;4.17;;;;;;;12.94;100.00;99811.56;1701624;83;21584;-77
2021/06/08 00:27:33;;;;;;;4.83;3.97;;;;;;;12.92;100.00;99805.24;1700998;83;21719;-78
2021/06/08 00:30:00;;;;;;;6.33;4.70;;;;;;;12.97;100.00;99798.07;1701383;83;21702;-78
2021/06/08 00:32:26;;;;;;;5.23;3.90;;;;;;;12.90;100.00;99804.13;1702279;83;21560;-78
2021/06/08 00:34:53;;;;;;;7.07;4.30;;;;;;;12.87;100.00;99800.61;1701523;83;21098;-77
2021/06/08 00:37:20;;;;;;;6.40;4.50;;;;;;;12.84;100.00;99806.28;1702371;83;21151;-77
2021/06/08 00:39:46;;;;;;;6.87;4.33;;;;;;;12.79;100.00;99812.63;1701631;83;21513;-78
2021/06/08 00:42:12;;;;;;;4.57;3.80;;;;;;;12.77;100.00;99815.17;1701268;83;21081;-77
2021/06/08 00:44:39;;;;;;;4.90;4.13;;;;;;;12.75;100.00;99808.83;1701890;83;21568;-78
2021/06/08 00:47:06;;;;;;;5.43;4.03;;;;;;;12.71;100.00;99798.48;1703266;83;21002;-76
2021/06/08 00:49:33;;;;;;;8.27;4.40;;;;;;;12.70;100.00;99796.09;1701762;83;21766;-78
2021/06/08 00:52:00;;;;;;;6.20;4.00;;;;;;;12.70;100.00;99798.70;1701463;83;20897;-78
2021/06/08 00:54:26;;;;;;;6.37;4.70;;;;;;;12.65;100.00;99798.00;1701204;83;21432;-78
2021/06/08 00:56:55;;;;;;;8.57;4.27;;;;;;;12.62;100.00;99801.05;1701930;83;21184;-76
2021/06/08 00:59:22;;;;;;;5.93;4.43;;;;;;;12.62;100.00;99801.05;1702222;83;21003;-78
2021/06/08 01:01:48;;;;;;;5.17;4.10;;;;;;;12.56;100.00;99802.67;1702393;83;21815;-70
2021/06/08 01:04:15;;;;;;;7.30;4.30;;;;;;;12.56;100.00;99810.51;1702605;83;22228;-78
2021/06/08 01:06:47;;;;;;;5.30;3.73;;;;;;;12.53;100.00;99810.12;1701217;82;21525;-78
2021/06/08 01:09:09;;;;;;;5.73;4.43;;;;;;;12.53;100.00;99805.69;1701525;83;21375;-78
2021/06/08 01:11:36;;;;;;;6.70;4.23;;;;;;;12.53;100.00;99814.04;1700949;83;20999;-78
2021/06/08 01:14:03;;;;;;;6.27;4.00;;;;;;;12.51;100.00;99818.69;1701473;83;21161;-75
2021/06/08 01:16:30;;;;;;;7.60;4.60;;;;;;;12.43;100.00;99810.57;1702722;82;22384;-70
2021/06/08 01:18:57;;;;;;;5.67;4.37;;;;;;;12.48;100.00;99821.20;1702328;82;22069;-79
2021/06/08 01:21:23;;;;;;;6.23;4.80;;;;;;;12.48;100.00;99821.20;1702094;83;21042;-78
2021/06/08 01:23:50;;;;;;;6.70;4.53;;;;;;;12.40;100.00;99818.30;1703783;82;21041;-78
2021/06/08 01:26:17;;;;;;;6.23;4.40;;;;;;;12.40;100.00;99818.30;1701517;83;21152;-76
2021/06/08 01:28:44;;;;;;;6.07;4.77;;;;;;;12.48;100.00;99822.51;1700943;83;21019;-78
2021/06/08 01:31:14;;;;;;;6.10;4.73;;;;;;;12.52;100.00;99822.39;1701729;82;20983;-79
2021/06/08 01:33:43;;;;;;;6.60;4.50;;;;;;;12.57;100.00;99824.38;1703827;82;21010;-78
2021/06/08 01:36:13;;;;;;;8.50;4.60;;;;;;;12.54;100.00;99819.08;1701952;83;21497;-68
2021/06/08 01:38:41;;;;;;;7.43;4.93;;;;;;;12.58;100.00;99816.86;1703919;82;21175;-79
2021/06/08 01:41:10;;;;;;;5.33;3.90;;;;;;;12.65;100.00;99825.45;1702788;83;21446;-78
2021/06/08 01:43:36;;;;;;;5.47;3.80;;;;;;;12.68;100.00;99822.43;1701739;83;21486;-78
2021/06/08 01:46:03;;;;;;;4.90;3.93;;;;;;;12.69;100.00;99816.69;1701586;83;22192;-66
2021/06/08 01:48:29;;;;;;;8.07;4.87;;;;;;;12.72;100.00;99822.31;1701755;83;22357;-78
2021/06/08 01:50:59;;;;;;;5.83;4.07;;;;;;;12.79;100.00;99828.33;1701988;83;21896;-78
2021/06/08 01:53:38;;;;;;;10.97;4.23;;;;;;;12.87;100.00;99832.52;1673896;84;21025;-77
2021/06/08 01:56:09;;;;;;;5.80;4.40;;;;;;;12.90;100.00;99836.83;1692644;83;20955;-66
2021/06/08 01:59:01;;;;;;;7.03;4.37;;;;;;;12.99;100.00;99836.07;1685766;83;21157;-79
2021/06/08 02:01:53;;;;;;;6.13;4.33;;;;;;;13.11;100.00;99838.34;1701948;83;21046;-67
2021/06/08 02:04:26;;;;;;;6.77;3.77;;;;;;;13.25;100.00;99839.09;1687899;83;21172;-78
2021/06/08 02:07:25;;;;;;;8.53;4.53;;;;;;;13.53;100.00;99833.48;1674390;84;21500;-78
2021/06/08 02:10:47;;;;;;;5.60;4.50;;;;;;;13.90;100.00;99836.72;1678738;84;21349;-78
2021/06/08 02:13:51;;;;;;;5.70;4.10;;;;;;;14.31;100.00;99842.68;1670800;84;20920;-78
2021/06/08 02:16:24;;;;;;;6.00;4.60;;;;;;;14.88;100.00;99847.73;1673767;85;20934;-76
2021/06/08 02:18:50;;;;;;;7.03;4.17;;;;;;;15.43;100.00;99843.14;1675222;84;21188;-75
2021/06/08 02:21:29;;;;;;;6.07;3.63;;;;;;;15.83;100.00;99837.80;1671002;84;20845;-74
2021/06/08 02:23:55;;;;;;;5.30;3.67;;;;;;;16.10;100.00;99835.03;1646345;85;21057;-76
2021/06/08 02:26:24;;;;;;;6.90;3.83;;;;;;;16.45;100.00;99838.93;1670716;84;21083;-74
2021/06/08 02:28:51;;;;;;;5.83;3.77;;;;;;;16.86;100.00;99837.64;1673814;85;21026;-68
2021/06/08 02:31:18;;;;;;;5.97;3.53;;;;;;;17.36;100.00;99827.77;1674300;85;21120;-74
2021/06/08 02:33:46;;;;;;;7.50;3.60;;;;;;;17.84;100.00;99830.38;1680633;84;20992;-65
2021/06/08 02:36:13;;;;;;;7.77;3.80;;;;;;;18.25;100.00;99826.48;1671409;84;21028;-78
2021/06/08 02:38:40;;;;;;;5.03;3.63;;;;;;;18.67;100.00;99827.26;1670894;84;21103;-65
2021/06/08 02:41:07;;;;;;;5.13;3.90;;;;;;;18.98;100.00;99817.05;1673995;85;21092;-76
2021/06/08 02:43:35;;;;;;;5.97;4.27;;;;;;;19.39;100.00;99810.30;1674336;85;21148;-76
2021/06/08 02:46:02;;;;;;;4.73;3.40;;;;;;;19.92;100.00;99812.04;1674051;85;20938;-65
2021/06/08 02:48:28;;;;;;;4.80;3.97;;;;;;;20.52;100.00;99801.25;1673836;84;20962;-65
2021/06/08 02:50:55;;;;;;;4.80;3.73;;;;;;;21.04;100.00;99797.68;1680678;84;21168;-73
2021/06/08 02:53:22;;;;;;;4.83;3.87;;;;;;;21.60;100.00;99793.21;1672124;84;21051;-74
2021/06/08 02:55:52;;;;;;;6.43;3.73;;;;;;;22.10;100.00;99787.53;1674347;84;21164;-74
2021/06/08 02:58:20;;;;;;;5.70;4.07;;;;;;;22.62;100.00;99787.36;1674014;85;20966;-68
2021/06/08 03:00:46;;;;;;;4.93;3.30;;;;;;;23.04;100.00;99788.97;1682561;80;20930;-73
2021/06/08 03:03:20;;;;;;;5.08;3.95;;;;;;;23.46;100.00;99784.91;1681053;83;21066;-71
2021/06/08 03:05:58;;;;;;;5.00;3.72;;;;;;;23.85;100.00;99774.71;1673512;83;21491;-71
2021/06/08 03:08:41;;;;;;;4.80;4.20;;;;;;;24.23;100.00;99789.47;1679203;83;21157;-68
2021/06/08 03:11:11;;;;;;;4.90;3.62;;;;;;;24.50;100.00;99783.02;1680933;83;20966;-70
2021/06/08 03:13:37;;;;;;;6.10;3.58;;;;;;;24.93;100.00;99780.30;1654443;85;20995;-72
2021/06/08 03:16:04;;;;;;;4.42;3.10;;;;;;;25.24;100.00;99789.18;1678593;83;20948;-67
2021/06/08 03:18:31;;;;;;;4.42;3.70;;;;;;;25.13;100.00;99781.09;1681860;83;21573;-70
2021/06/08 03:21:13;;;;;;;5.80;4.15;;;;;;;24.76;100.00;99782.67;1673974;83;21547;-71
2021/06/08 03:23:43;;;;;;;4.92;3.90;;;;;;;24.33;100.00;99790.68;1681096;83;20838;-66
2021/06/08 03:26:10;;;;;;;5.73;3.80;;;;;;;23.97;100.00;99792.95;1636959;85;20983;-71
2021/06/08 03:28:36;;;;;;;4.70;3.80;;;;;;;23.77;100.00;99796.08;1642945;85;21106;-71
2021/06/08 03:31:03;;;;;;;6.30;3.83;;;;;;;23.55;100.00;99795.19;1629748;86;21043;-72
2021/06/08 03:33:29;;;;;;;5.25;3.75;;;;;;;22.88;100.00;99799.42;1606931;87;21872;-73
2021/06/08 03:35:56;;;;;;;6.55;4.72;;;;;;;22.36;100.00;99792.78;1634021;85;20983;-76
2021/06/08 03:38:23;;;;;;;6.12;5.03;;;;;;;21.92;100.00;99792.08;1595502;87;21080;-74
2021/06/08 03:40:51;;;;;;;5.20;4.70;;;;;;;21.60;100.00;99797.19;1627486;86;21101;-73
2021/06/08 03:43:18;;;;;;;7.47;5.50;;;;;;;21.43;100.00;99795.33;1638395;85;21012;-74
2021/06/08 03:45:48;;;;;;;6.60;6.00;;;;;;;21.60;100.00;99783.93;1642863;85;21160;-73
2021/06/08 03:48:15;;;;;;;7.60;5.83;;;;;;;21.83;100.00;99789.19;1629192;86;21478;-67
2021/06/08 03:50:43;;;;;;;7.05;5.92;;;;;;;21.91;100.00;99787.85;1653099;85;22421;-75
2021/06/08 03:53:10;;;;;;;7.23;6.30;;;;;;;21.77;100.00;99790.79;1653609;85;21505;-76
2021/06/08 03:55:36;;;;;;;7.17;5.67;;;;;;;21.58;100.00;99786.03;1646849;85;21020;-76
2021/06/08 03:58:13;;;;;;;7.07;6.10;;;;;;;21.39;100.00;99803.55;1612768;87;21153;-76
2021/06/08 04:00:41;;;;;;;7.47;5.63;;;;;;;21.23;100.00;99796.10;1640036;85;21431;-75
2021/06/08 04:03:09;;;;;;;8.10;5.90;;;;;;;21.12;100.00;99797.95;1659122;84;21089;-74
2021/06/08 04:05:37;;;;;;;7.50;6.80;;;;;;;20.91;100.00;99805.62;1657916;84;21453;-76
2021/06/08 04:08:09;;;;;;;7.43;6.53;;;;;;;20.60;100.00;99804.19;1637436;86;21068;-65
2021/06/08 04:10:36;;;;;;;7.20;6.17;;;;;;;20.34;100.00;99806.44;1658053;85;21133;-73
2021/06/08 04:13:03;;;;;;;6.13;5.43;;;;;;;20.29;100.00;99811.72;1659140;85;20954;-72
2021/06/08 04:15:31;;;;;;;7.07;5.33;;;;;;;19.98;100.00;99812.88;1655847;84;21018;-73
2021/06/08 04:17:58;;;;;;;10.87;6.27;;;;;;;19.78;100.00;99810.13;1644227;85;21650;-64
2021/06/08 04:20:27;;;;;;;6.37;5.20;;;;;;;19.73;100.00;99814.03;1655304;84;21021;-73
2021/06/08 04:22:56;;;;;;;6.67;5.97;;;;;;;19.57;100.00;99811.25;1658074;84;21474;-73
2021/06/08 04:25:24;;;;;;;8.03;6.33;;;;;;;19.58;100.00;99812.84;1652512;84;21079;-74
2021/06/08 04:27:52;;;;;;;6.40;5.80;;;;;;;19.51;100.00;99813.60;1623981;86;21053;-72
2021/06/08 04:30:19;;;;;;;5.87;5.27;;;;;;;19.39;100.00;99821.67;1647727;85;21644;-66
2021/06/08 04:32:46;;;;;;;8.97;6.20;;;;;;;19.34;100.00;99827.45;1624417;86;22348;-71
2021/06/08 04:35:15;;;;;;;7.13;5.40;;;;;;;19.14;100.00;99822.26;1646392;85;21108;-69
2021/06/08 04:37:42;;;;;;;6.10;5.10;;;;;;;18.96;100.00;99830.00;1584995;89;21079;-72
2021/06/08 04:40:11;;;;;;;6.40;5.20;;;;;;;18.81;100.00;99833.80;1647478;85;20950;-65
2021/06/08 04:42:42;;;;;;;7.80;5.10;;;;;;;18.69;100.00;99830.47;1653208;84;21063;-72
2021/06/08 04:45:09;;;;;;;;;;;;;;;18.71;100.00;99833.17;1651843;84;21077;-73
2021/06/08 04:47:35;;;;;;;6.40;5.30;;;;;;;18.58;100.00;99830.86;1655714;84;21219;-73
2021/06/08 04:50:02;;;;;;;7.43;4.97;;;;;;;18.30;100.00;99829.20;1647099;84;21037;-66
2021/06/08 04:52:29;;;;;;;7.40;5.40;;;;;;;18.33;100.00;99833.97;1648779;85;21028;-71
2021/06/08 04:54:55;;;;;;;6.80;4.83;;;;;;;18.38;100.00;99831.42;1649275;85;21033;-72
2021/06/08 04:57:22;;;;;;;5.60;4.73;;;;;;;18.35;100.00;99831.90;1652896;85;21030;-73
2021/06/08 05:00:12;;;;;;;6.57;5.10;;;;;;;18.35;100.00;99832.42;1654276;84;21166;-72
2021/06/08 05:02:52;;;;;;;7.65;5.62;;;;;;;18.37;100.00;99837.75;1633646;85;21033;-72
2021/06/08 05:05:26;;;;;;;7.57;5.60;;;;;;;18.46;100.00;99842.07;1639734;85;21547;-72
2021/06/08 05:08:14;;;;;;;7.70;6.17;;;;;;;18.48;100.00;99843.41;1636212;85;21042;-68
2021/06/08 05:10:45;;;;;;;6.67;5.37;;;;;;;18.51;100.00;99836.84;1643751;85;20999;-71
2021/06/08 05:13:12;;;;;;;8.13;6.00;;;;;;;18.57;100.00;99838.52;1634256;85;21501;-70
2021/06/08 05:15:39;;;;;;;8.40;6.17;;;;;;;18.47;100.00;99841.02;1642673;85;21006;-67
2021/06/08 05:18:06;;;;;;;7.90;5.47;;;;;;;18.43;100.00;99841.23;1646995;85;21168;-66
2021/06/08 05:20:35;;;;;;;6.73;5.80;;;;;;;18.45;100.00;99836.00;1643605;85;21094;-70
2021/06/08 05:23:01;;;;;;;7.40;5.87;;;;;;;18.47;100.00;99831.78;1645639;85;21560;-71
2021/06/08 05:25:29;;;;;;;7.57;5.50;;;;;;;18.59;100.00;99832.45;1642084;85;21659;-70
2021/06/08 05:27:56;;;;;;;7.23;5.43;;;;;;;18.73;100.00;99840.05;1643649;85;21025;-65
2021/06/08 05:30:22;;;;;;;8.13;6.73;;;;;;;18.87;100.00;99835.98;1646857;85;21022;-71
2021/06/08 05:32:49;;;;;;;6.87;5.90;;;;;;;18.95;100.00;99834.22;1642924;85;21089;-71
2021/06/08 05:35:18;;;;;;;7.17;6.13;;;;;;;19.04;100.00;99836.67;1622017;86;20988;-71
2021/06/08 05:37:44;;;;;;;7.17;5.57;;;;;;;19.13;100.00;99836.52;1599672;87;21158;-72
2021/06/08 05:40:11;;;;;;;8.07;5.83;;;;;;;19.28;100.00;99839.02;1641848;85;21038;-71
2021/06/08 05:42:38;;;;;;;9.93;6.50;;;;;;;19.34;100.00;99843.31;1640474;85;21015;-70
2021/06/08 05:45:06;;;;;;;10.13;6.73;;;;;;;19.32;100.00;99838.78;1624282;86;21551;-71
2021/06/08 05:47:33;;;;;;;7.57;6.30;;;;;;;19.34;100.00;99834.85;1647349;85;21572;-71
2021/06/08 05:50:00;;;;;;;6.23;5.23;;;;;;;19.39;100.00;99834.89;1642273;85;21081;-69
2021/06/08 05:52:27;;;;;;;8.17;6.00;;;;;;;19.44;100.00;99828.87;1627635;85;21022;-72
2021/06/08 05:54:54;;;;;;;7.67;5.73;;;;;;;19.42;100.00;99832.27;1641731;85;21573;-72
2021/06/08 05:57:21;;;;;;;6.53;5.67;;;;;;;19.38;100.00;99833.30;1642206;85;21082;-69
2021/06/08 05:59:48;;;;;;;5.50;5.00;;;;;;;19.33;100.00;99831.15;1639279;85;20959;-71
2021/06/08 06:02:15;;;;;;;7.53;5.53;;;;;;;19.27;100.00;99836.90;1650793;84;21156;-70
2021/06/08 06:04:44;;;;;;;6.87;5.10;;;;;;;19.29;100.00;99830.06;1658953;84;21009;-68
2021/06/08 06:07:11;;;;;;;6.13;5.53;;;;;;;19.39;100.00;99828.81;1658019;84;21041;-69
2021/06/08 06:09:38;;;;;;;5.50;4.93;;;;;;;19.46;100.00;99832.04;1658311;84;21114;-66
2021/06/08 06:12:06;;;;;;;5.77;5.10;;;;;;;19.56;100.00;99833.45;1647025;84;20982;-69
2021/06/08 06:14:35;;;;;;;5.73;5.13;;;;;;;19.69;100.00;99827.75;1647924;84;21210;-69
2021/06/08 06:17:02;;;;;;;7.77;5.17;;;;;;;19.82;100.00;99832.36;1650079;85;21041;-68
2021/06/08 06:19:29;;;;;;;6.63;5.17;;;;;;;19.87;100.00;99833.71;1650920;85;21016;-66
2021/06/08 06:21:57;;;;;;;7.83;4.80;;;;;;;20.07;100.00;99834.36;1645904;85;21017;-65
2021/06/08 06:24:26;;;;;;;7.03;5.10;;;;;;;20.40;100.00;99829.24;1654231;84;20992;-70
2021/06/08 06:26:53;;;;;;;6.87;5.53;;;;;;;20.71;100.00;99832.83;1650352;85;22429;-70
2021/06/08 06:29:19;;;;;;;8.40;5.80;;;;;;;20.84;100.00;99827.59;1656997;85;20979;-68
2021/06/08 06:31:47;;;;;;;7.80;5.10;;;;;;;20.92;100.00;99829.72;1649395;85;21002;-70
2021/06/08 06:34:16;;;;;;;5.70;5.07;;;;;;;20.96;100.00;99827.34;1648746;84;22520;-64
2021/06/08 06:36:45;;;;;;;7.07;5.63;;;;;;;21.00;100.00;99829.73;1626118;86;21141;-71
2021/06/08 06:39:24;;;;;;;9.20;6.00;;;;;;;21.01;100.00;99829.47;1658008;85;21823;-66
2021/06/08 06:41:52;;;;;;;6.60;5.90;;;;;;;21.04;100.00;99832.92;1652642;84;21444;-71
2021/06/08 06:44:20;;;;;;;7.73;6.17;;;;;;;21.06;100.00;99830.82;1650647;85;21437;-65
2021/06/08 06:46:48;;;;;;;8.00;5.80;;;;;;;21.07;100.00;99825.78;1645381;85;21160;-69
2021/06/08 06:49:15;;;;;;;5.77;4.77;;;;;;;21.24;100.00;99824.73;1651229;84;20998;-64
2021/06/08 06:51:45;;;;;;;8.47;5.90;;;;;;;21.45;100.00;99822.92;1645911;84;21121;-69
2021/06/08 06:54:12;;;;;;;6.97;5.60;;;;;;;21.86;100.00;99818.39;1652768;85;21006;-68
2021/06/08 06:56:40;;;;;;;7.53;6.03;;;;;;;22.33;100.00;99811.91;1648020;84;21000;-68
2021/06/08 06:59:07;;;;;;;6.87;6.17;;;;;;;22.72;100.00;99818.63;1656740;85;21040;-70
2021/06/08 07:01:33;;;;;;;8.57;6.43;;;;;;;23.19;100.00;99814.66;1656507;84;21008;-68
2021/06/08 07:04:01;;;;;;;6.67;5.97;;;;;;;23.65;100.00;99821.47;1633830;85;21159;-68
2021/06/08 07:06:29;;;;;;;6.67;5.40;;;;;;;24.22;100.00;99812.64;1636477;85;20970;-67
2021/06/08 07:08:57;;;;;;;6.35;5.08;;;;;;;24.88;100.00;99803.02;1636932;85;21048;-68
2021/06/08 07:11:25;;;;;;;8.90;5.53;;;;;;;25.63;100.00;99798.11;1640594;85;21044;-69
2021/06/08 07:13:52;;;;;;;6.05;5.37;;;;;;;26.05;100.00;99795.51;1640258;85;21109;-68
2021/06/08 07:16:23;;;;;;;5.25;4.65;;;;;;;26.32;100.00;99792.81;1630673;85;21169;-65
2021/06/08 07:18:49;;;;;;;5.60;4.85;;;;;;;26.50;100.00;99790.35;1640029;85;21003;-70
2021/06/08 07:21:18;;;;;;;5.22;4.05;;;;;;;26.89;100.00;99789.73;1639596;85;21590;-67
2021/06/08 07:23:46;;;;;;;5.97;4.80;;;;;;;27.44;100.00;99784.16;1639114;85;21007;-70
2021/06/08 07:26:14;;;;;;;4.83;4.20;;;;;;;27.44;100.00;99784.16;1636346;85;21137;-70
2021/06/08 07:28:41;;;;;;;6.45;5.40;;;;;;;27.50;100.00;99778.90;1631064;85;21140;-67
2021/06/08 07:31:08;;;;;;;6.83;5.12;;;;;;;27.28;100.00;99777.07;1639273;85;21117;-69
2021/06/08 07:33:48;;;;;;;5.28;4.67;;;;;;;27.05;100.00;99774.11;1632302;85;20926;-69
2021/06/08 07:36:27;;;;;;;6.25;5.30;;;;;;;26.87;100.00;99775.89;1638686;85;20980;-65
2021/06/08 07:39:02;;;;;;;5.45;4.95;;;;;;;26.71;100.00;99766.62;1638260;85;20927;-64
2021/06/08 07:41:44;;;;;;;6.55;5.42;;;;;;;26.61;100.00;99768.98;1641092;85;21141;-71
2021/06/08 07:44:28;;;;;;;5.90;5.33;;;;;;;26.39;100.00;99771.82;1630761;85;21057;-69
2021/06/08 07:46:58;;;;;;;7.03;5.75;;;;;;;26.53;100.00;99780.40;1629350;85;21015;-69
2021/06/08 07:49:24;;;;;;;6.85;5.85;;;;;;;26.68;100.00;99781.40;1639199;85;21055;-69
2021/06/08 07:51:51;;;;;;;6.87;5.72;;;;;;;27.05;100.00;99778.94;1632081;85;21591;-68
2021/06/08 07:54:17;;;;;;;8.18;6.35;;;;;;;27.55;100.00;99772.09;1638608;85;21584;-72
2021/06/08 07:56:44;;;;;;;6.33;5.67;;;;;;;27.55;100.00;99772.09;1632842;85;21487;-70
2021/06/08 07:59:13;;;;;;;8.10;5.90;;;;;;;27.51;100.00;99770.34;1638969;85;21615;-70
2021/06/08 08:01:40;;;;;;;5.85;5.20;;;;;;;27.58;100.00;99766.13;1636024;85;21030;-71
2021/06/08 08:04:09;;;;;;;5.15;4.65;;;;;;;27.85;100.00;99753.11;1640999;84;20978;-71
2021/06/08 08:06:35;;;;;;;5.58;4.78;;;;;;;28.36;100.00;99751.63;1652130;85;21133;-67
2021/06/08 08:09:04;;;;;;;5.45;4.95;;;;;;;29.03;100.00;99734.87;1651564;84;21008;-71
2021/06/08 08:11:31;;;;;;;5.50;5.00;;;;;;;29.84;100.00;99734.52;1658324;84;21139;-69
2021/06/08 08:13:59;;;;;;;5.60;4.72;;;;;;;29.86;100.00;99725.59;1649563;84;20973;-66
2021/06/08 08:16:26;;;;;;;6.62;4.50;;;;;;;30.00;100.00;99727.46;1657460;84;21070;-70
2021/06/08 08:18:52;;;;;;;6.15;4.20;;;;;;;30.25;100.00;99725.19;1657330;85;22293;-70
2021/06/08 08:21:20;;;;;;;4.70;4.20;;;;;;;30.70;100.00;99723.73;1657405;84;21460;-71
2021/06/08 08:23:47;;;;;;;8.18;4.70;;;;;;;31.15;100.00;99727.82;1658590;84;21516;-71
2021/06/08 08:26:14;;;;;;;7.50;4.62;;;;;;;31.46;100.00;99730.02;1655831;84;22418;-69
2021/06/08 08:28:42;;;;;;;8.00;4.80;;;;;;;31.91;100.00;99730.49;1657810;84;21125;-64
2021/06/08 08:31:17;;;;;;;5.45;3.83;;;;;;;32.20;100.00;99724.58;1657348;84;21427;-71
2021/06/08 08:33:45;;;;;;;5.28;3.72;;;;;;;32.29;100.00;99724.47;1658080;84;20947;-71
2021/06/08 08:36:12;;;;;;;5.72;4.60;;;;;;;32.50;100.00;99722.39;1656571;84;21011;-70
2021/06/08 08:38:39;;;;;;;7.05;4.42;;;;;;;32.44;95.79;99725.13;1657651;85;21033;-73
2021/06/08 08:41:05;;;;;;;5.03;3.95;;;;;;;31.89;95.56;99725.99;1653919;84;21087;-73
2021/06/08 08:43:51;;;;;;;5.42;4.05;;;;;;;31.43;100.00;99721.82;1657112;84;21104;-73
2021/06/08 08:46:19;;;;;;;6.75;4.28;;;;;;;31.50;100.00;99724.19;1658183;84;20906;-74
2021/06/08 08:48:47;;;;;;;5.05;4.17;;;;;;;31.61;97.34;99723.75;1653760;84;21148;-66
2021/06/08 08:51:16;;;;;;;5.20;4.25;;;;;;;31.45;98.81;99722.28;1658448;84;21366;-73
2021/06/08 08:53:45;;;;;;;5.37;3.98;;;;;;;31.17;100.00;99723.44;1657302;84;21079;-72
2021/06/08 08:56:15;;;;;;;5.60;4.28;;;;;;;30.92;99.53;99720.70;1657806;84;21179;-66
2021/06/08 08:58:44;;;;;;;4.70;3.20;;;;;;;30.79;100.00;99725.80;1653996;84;21025;-74
2021/06/08 09:01:11;;;;;;;4.08;2.90;;;;;;;30.53;100.00;99723.31;1657363;84;21129;-71
2021/06/08 09:03:38;;;;;;;3.92;2.80;;;;;;;30.01;100.00;99723.68;1654715;84;21049;-73
2021/06/08 09:06:05;;;;;;;4.55;2.92;;;;;;;29.48;100.00;99725.03;1643664;85;20939;-72
2021/06/08 09:08:31;;;;;;;4.90;3.20;;;;;;;28.92;100.00;99720.97;1644669;85;21105;-72
2021/06/08 09:10:59;;;;;;;3.67;2.60;;;;;;;28.20;100.00;99725.05;1642258;85;21121;-74
2021/06/08 09:13:26;;;;;;;3.05;2.25;;;;;;;27.71;100.00;99729.63;1645707;85;20987;-73
2021/06/08 09:15:53;;;;;;;3.00;2.40;;;;;;;27.36;100.00;99730.04;1642772;85;21102;-71
2021/06/08 09:18:24;;;;;;;3.35;2.58;;;;;;;27.26;100.00;99721.71;1646709;85;21058;-72
2021/06/08 09:20:52;;;;;;;3.98;3.00;;;;;;;27.11;100.00;99710.06;1641468;85;21133;-72
2021/06/08 09:23:23;;;;;;;5.15;2.50;;;;;;;27.15;100.00;99712.36;1640728;85;21874;-73
2021/06/08 09:25:52;;;;;;;2.90;2.27;;;;;;;27.45;100.00;99719.36;1640185;85;21080;-75
2021/06/08 09:28:35;;;;;;;3.77;2.65;;;;;;;28.03;100.00;99715.62;1632490;85;21133;-65
2021/06/08 09:31:23;;;;;;;3.70;2.67;;;;;;;28.46;100.00;99714.38;1635946;85;20988;-72
2021/06/08 09:33:49;;;;;;;4.05;2.60;;;;;;;28.76;100.00;99707.27;1644471;85;21172;-65
2021/06/08 09:36:19;;;;;;;3.40;2.83;;;;;;;28.96;100.00;99703.67;1642856;85;20944;-73
2021/06/08 09:38:53;;;;;;;3.17;2.20;;;;;;;29.06;100.00;99700.13;1644391;85;21090;-65
2021/06/08 09:41:31;;;;;;;3.58;2.02;;;;;;;29.25;100.00;99700.32;1635917;85;21056;-72
2021/06/08 09:44:05;;;;;;;3.20;2.42;;;;;;;29.55;100.00;99703.83;1637260;85;21066;-74
2021/06/08 09:46:45;;;;;;;5.37;2.90;;;;;;;29.87;100.00;99697.60;1645586;85;21152;-68
2021/06/08 09:49:16;;;;;;;3.77;2.40;;;;;;;30.14;100.00;99705.16;1634565;85;21010;-74
2021/06/08 09:52:00;;;;;;;3.65;2.37;;;;;;;29.97;100.00;99701.27;1644990;85;21050;-72
2021/06/08 09:54:32;;;;;;;4.25;2.92;;;;;;;29.52;100.00;99707.94;1642391;85;20955;-71
2021/06/08 09:57:29;;;;;;;3.80;2.70;;;;;;;28.93;100.00;99701.06;1643756;85;21053;-73
2021/06/08 10:00:00;;;;;;;3.55;2.65;;;;;;;28.38;100.00;99701.77;1637360;85;22676;-72
2021/06/08 10:02:35;;;;;;;;;;;;;;;27.99;100.00;99702.63;1640181;85;21168;-72
2021/06/08 10:05:24;;;;;;;5.25;2.60;;;;;;;27.60;100.00;99694.86;1645520;84;20150;-65
2021/06/08 10:08:07;;;;;;;4.08;2.98;;;;;;;27.28;100.00;99691.98;1653218;84;21367;-70
2021/06/08 10:10:48;;;;;;;4.75;2.80;;;;;;;27.09;100.00;99691.62;1658017;84;21484;-71
2021/06/08 10:13:18;;;;;;;2.75;2.22;;;;;;;27.01;100.00;99684.86;1658814;84;21223;-71
2021/06/08 10:16:03;;;;;;;4.62;2.40;;;;;;;26.96;100.00;99675.64;1657632;84;20988;-73
2021/06/08 10:18:44;;;;;;;2.98;2.35;;;;;;;27.20;100.00;99687.36;1659453;84;20970;-72
2021/06/08 10:21:11;;;;;;;3.02;2.00;;;;;;;27.44;100.00;99683.00;1655081;84;22143;-70
2021/06/08 10:23:38;;;;;;;4.17;2.65;;;;;;;27.67;100.00;99681.02;1659467;84;21002;-68
2021/06/08 10:26:09;;;;;;;4.30;2.83;;;;;;;27.82;100.00;99681.95;1652611;84;21038;-69
2021/06/08 10:28:36;;;;;;;2.75;2.15;;;;;;;28.11;100.00;99665.31;1642853;85;20970;-64
2021/06/08 10:31:03;;;;;;;2.90;2.20;;;;;;;28.31;100.00;99664.67;1654291;84;20910;-69
2021/06/08 10:33:30;;;;;;;2.90;2.05;;;;;;;28.46;100.00;99666.12;1643700;85;21100;-71
2021/06/08 10:35:57;;;;;;;3.40;2.05;;;;;;;28.34;100.00;99663.27;1655331;85;21046;-73
2021/06/08 10:38:24;;;;;;;3.12;2.05;;;;;;;28.12;100.00;99663.64;1645917;84;21811;-71
2021/06/08 10:40:54;;;;;;;3.65;2.02;;;;;;;28.13;100.00;99661.19;1654264;84;21299;-65
2021/06/08 10:43:28;;;;;;;3.98;2.08;;;;;;;27.73;100.00;99663.17;1648873;85;22171;-73
2021/06/08 10:45:56;;;;;;;3.52;2.42;;;;;;;27.51;100.00;99657.91;1646098;84;22219;-71
2021/06/08 10:48:31;;;;;;;4.70;2.37;;;;;;;27.25;100.00;99660.48;1651048;84;21033;-71
2021/06/08 10:51:18;;;;;;;3.05;2.02;;;;;;;27.12;100.00;99651.44;1645059;84;21153;-72
2021/06/08 10:53:54;;;;;;;2.70;1.98;;;;;;;26.89;100.00;99645.31;1602844;87;20999;-71
2021/06/08 10:56:35;;;;;;;3.22;2.20;;;;;;;26.82;100.00;99644.44;1648318;85;21414;-65
2021/06/08 10:59:07;;;;;;;3.42;2.35;;;;;;;26.71;100.00;99638.28;1595242;87;21341;-73
2021/06/08 11:01:41;;;;;;;3.55;2.33;;;;;;;26.60;100.00;99641.22;1650110;84;21574;-71
2021/06/08 11:04:23;;;;;;;3.58;2.65;;;;;;;26.44;100.00;99646.12;1651595;84;21145;-70
2021/06/08 11:06:59;;;;;;;3.60;2.60;;;;;;;26.17;100.00;99654.20;1633886;85;21552;-76
2021/06/08 11:09:33;;;;;;;3.83;2.90;;;;;;;26.00;100.00;99656.73;1641402;85;21110;-64
2021/06/08 11:12:11;;;;;;;5.13;3.00;;;;;;;25.72;100.00;99666.07;1635823;85;21117;-73
2021/06/08 11:14:45;;;;;;;4.03;3.07;;;;;;;25.33;100.00;99672.70;1643718;85;21453;-69
2021/06/08 11:17:35;;;;;;;6.07;4.57;;;;;;;25.02;100.00;99684.97;1645237;85;21155;-64
2021/06/08 11:20:16;;;;;;;5.70;3.60;;;;;;;24.79;100.00;99690.13;1633505;85;21070;-76
2021/06/08 11:22:54;;;;;;;5.17;3.10;;;;;;;24.70;100.00;99691.86;1643022;85;21027;-69
2021/06/08 11:25:42;;;;;;;4.20;2.80;;;;;;;24.42;100.00;99687.75;1639588;85;21294;-75
2021/06/08 11:28:17;;;;;;;3.70;3.00;;;;;;;24.10;100.00;99694.30;1631972;85;21049;-66
2021/06/08 11:30:59;;;;;;;4.43;2.80;;;;;;;23.71;100.00;99695.28;1640287;85;21131;-73
2021/06/08 11:33:36;;;;;;;4.97;2.90;;;;;;;23.76;100.00;99700.57;1637679;85;20921;-76
2021/06/08 11:36:24;;;;;;;3.50;2.80;;;;;;;23.50;100.00;99702.68;1639265;85;20993;-63
2021/06/08 11:38:59;;;;;;;3.40;2.50;;;;;;;22.78;100.00;99711.79;1634075;85;21065;-73
2021/06/08 11:41:25;;;;;;;5.73;2.80;;;;;;;22.26;100.00;99719.80;1625033;85;21021;-75